createdAt,value
2023-01-17T00:02:09.563Z,0.75
2023-01-17T00:04:54.895Z,0.65
2023-01-17T00:07:41.642Z,0.80
2023-01-17T00:10:12.180Z,0.70
2023-01-17T00:12:46.487Z,0.90
2023-01-17T00:15:14.235Z,0.95
2023-01-17T00:17:42.000Z,1.85
2023-01-17T00:20:31.611Z,0.82
2023-01-17T00:23:16.915Z,0.88
2023-01-17T00:26:02.368Z,1.00
2023-01-17T00:28:32.654Z,0.85
2023-01-17T00:30:59.419Z,0.80
2023-01-17T00:33:26.112Z,1.10
2023-01-17T00:35:54.001Z,1.05
2023-01-17T00:38:22.934Z,1.00
2023-01-17T00:40:50.311Z,0.80
2023-01-17T00:43:37.123Z,1.00
2023-01-17T00:46:24.615Z,1.05
2023-01-17T00:49:10.197Z,0.80
2023-01-17T00:51:56.463Z,1.17
2023-01-17T00:54:41.938Z,1.15
2023-01-17T00:57:27.263Z,0.90
2023-01-17T01:00:12.648Z,1.05
2023-01-17T01:02:59.158Z,0.80
2023-01-17T01:05:44.391Z,0.88
2023-01-17T01:08:38.392Z,0.90
2023-01-17T01:11:25.294Z,0.70
2023-01-17T01:14:10.578Z,0.60
2023-01-17T01:16:55.988Z,0.80
2023-01-17T01:19:42.630Z,0.70
2023-01-17T01:22:27.799Z,0.52
2023-01-17T01:25:13.267Z,0.93
2023-01-17T01:27:58.519Z,0.70
2023-01-17T01:30:43.884Z,0.80
2023-01-17T01:33:20.685Z,0.70
2023-01-17T01:35:51.445Z,0.60
2023-01-17T01:38:19.987Z,0.65
2023-01-17T01:40:49.375Z,0.70
2023-01-17T01:43:19.659Z,0.70
2023-01-17T01:45:53.595Z,0.60
2023-01-17T01:48:36.325Z,0.80
2023-01-17T01:51:09.652Z,0.60
2023-01-17T01:53:41.680Z,0.73
2023-01-17T01:58:39.337Z,0.50
2023-01-17T02:01:09.690Z,0.60
2023-01-17T02:03:41.257Z,0.63
2023-01-17T02:06:21.956Z,0.73
2023-01-17T02:08:50.129Z,0.77
2023-01-17T02:11:18.100Z,0.65
2023-01-17T02:13:46.459Z,0.68
2023-01-17T02:16:27.735Z,0.70
2023-01-17T02:19:06.971Z,0.63
2023-01-17T02:21:43.203Z,0.85
2023-01-17T02:24:54.751Z,0.52
2023-01-17T02:27:27.226Z,0.75
2023-01-17T02:30:33.230Z,0.77
2023-01-17T02:33:11.667Z,0.80
2023-01-17T02:35:47.429Z,0.57
2023-01-17T02:38:31.502Z,0.60
2023-01-17T02:41:05.302Z,0.80
2023-01-17T02:43:35.107Z,1.15
2023-01-17T02:46:04.778Z,0.60
2023-01-17T02:48:35.623Z,0.60
2023-01-17T02:51:28.258Z,0.50
2023-01-17T02:54:10.899Z,0.70
2023-01-17T02:56:50.531Z,0.60
2023-01-17T02:59:34.913Z,0.68
2023-01-17T03:02:18.097Z,0.52
2023-01-17T03:04:51.020Z,0.70
2023-01-17T03:07:22.647Z,0.90
2023-01-17T03:09:57.696Z,0.70
2023-01-17T03:12:28.335Z,0.57
2023-01-17T03:14:56.082Z,0.77
2023-01-17T03:17:27.702Z,1.13
2023-01-17T03:19:55.517Z,0.40
2023-01-17T03:22:23.285Z,0.60
2023-01-17T03:24:51.314Z,0.65
2023-01-17T03:27:19.036Z,0.75
2023-01-17T03:29:47.042Z,1.23
2023-01-17T03:32:14.948Z,0.70
2023-01-17T03:34:44.031Z,0.70
2023-01-17T03:37:11.923Z,0.50
2023-01-17T03:39:39.729Z,0.70
2023-01-17T03:42:07.529Z,0.60
2023-01-17T03:44:35.366Z,0.52
2023-01-17T03:47:03.199Z,0.40
2023-01-17T03:49:31.420Z,0.80
2023-01-17T03:52:00.539Z,0.73
2023-01-17T03:54:28.790Z,0.82
2023-01-17T03:56:56.977Z,0.70
2023-01-17T03:59:24.750Z,0.60
2023-01-17T04:01:52.668Z,0.63
2023-01-17T04:04:20.600Z,0.70
2023-01-17T04:06:48.350Z,0.50
2023-01-17T04:09:17.427Z,0.55
2023-01-17T04:11:45.386Z,0.60
2023-01-17T04:14:13.220Z,0.50
2023-01-17T04:16:41.353Z,0.85
2023-01-17T04:19:10.901Z,0.60
2023-01-17T04:21:38.633Z,0.60
2023-01-17T04:24:07.439Z,0.70
2023-01-17T04:26:37.136Z,0.43
2023-01-17T04:29:05.107Z,0.60
2023-01-17T04:31:32.888Z,0.63
2023-01-17T04:34:00.680Z,0.60
2023-01-17T04:36:28.552Z,0.70
2023-01-17T04:38:56.262Z,0.70
2023-01-17T04:41:24.296Z,0.73
2023-01-17T04:43:53.552Z,0.80
2023-01-17T04:46:21.426Z,0.50
2023-01-17T04:48:49.310Z,0.50
2023-01-17T04:51:17.125Z,1.10
2023-01-17T04:53:44.967Z,0.60
2023-01-17T04:56:12.771Z,0.57
2023-01-17T04:58:40.617Z,0.70
2023-01-17T05:01:10.086Z,0.60
2023-01-17T05:03:38.064Z,0.70
2023-01-17T05:06:06.028Z,0.60
2023-01-17T05:08:33.788Z,0.70
2023-01-17T05:11:01.738Z,0.80
2023-01-17T05:13:29.506Z,0.90
2023-01-17T05:15:57.974Z,0.70
2023-01-17T05:18:27.172Z,0.80
2023-01-17T05:20:55.070Z,0.60
2023-01-17T05:23:22.887Z,0.60
2023-01-17T05:25:50.649Z,0.68
2023-01-17T05:28:18.445Z,0.40
2023-01-17T05:30:46.249Z,0.57
2023-01-17T05:33:14.007Z,0.70
2023-01-17T05:35:43.084Z,0.65
2023-01-17T05:38:10.981Z,0.70
2023-01-17T05:40:38.740Z,0.82
2023-01-17T05:43:06.568Z,1.35
2023-01-17T05:45:35.233Z,0.65
2023-01-17T05:48:03.725Z,0.57
2023-01-17T05:50:33.895Z,0.70
2023-01-17T05:53:04.712Z,0.60
2023-01-17T05:55:34.190Z,0.70
2023-01-17T05:58:02.272Z,0.93
2023-01-17T06:00:30.612Z,0.45
2023-01-17T06:03:00.354Z,0.70
2023-01-17T06:05:29.247Z,0.80
2023-01-17T06:07:57.366Z,0.98
2023-01-17T06:10:28.243Z,1.10
2023-01-17T06:13:03.122Z,0.90
2023-01-17T06:15:30.869Z,0.90
2023-01-17T06:17:58.689Z,1.08
2023-01-17T06:20:27.372Z,0.98
2023-01-17T06:22:55.341Z,0.93
2023-01-17T06:25:23.169Z,1.17
2023-01-17T06:27:54.755Z,1.25
2023-01-17T06:30:22.865Z,1.13
2023-01-17T06:32:54.028Z,0.90
2023-01-17T06:35:21.830Z,1.30
2023-01-17T06:37:52.150Z,1.15
2023-01-17T06:40:20.489Z,1.15
2023-01-17T06:42:48.673Z,0.85
2023-01-17T06:45:17.829Z,0.75
2023-01-17T06:47:46.022Z,1.30
2023-01-17T06:50:16.136Z,1.08
2023-01-17T06:52:44.220Z,0.60
2023-01-17T06:55:12.271Z,1.20
2023-01-17T06:57:39.991Z,0.90
2023-01-17T07:00:10.347Z,1.05
2023-01-17T07:02:39.462Z,1.00
2023-01-17T07:05:08.615Z,1.10
2023-01-17T07:07:36.400Z,0.90
2023-01-17T07:10:05.029Z,0.65
2023-01-17T07:12:32.837Z,0.70
2023-01-17T07:15:00.599Z,0.60
2023-01-17T07:17:28.454Z,1.02
2023-01-17T07:19:57.637Z,1.00
2023-01-17T07:22:25.495Z,1.05
2023-01-17T07:24:53.499Z,0.82
2023-01-17T07:27:21.205Z,0.70
2023-01-17T07:29:48.989Z,0.90
2023-01-17T07:32:17.052Z,0.65
2023-01-17T07:34:44.801Z,1.00
2023-01-17T07:37:15.310Z,0.65
2023-01-17T07:39:43.792Z,0.90
2023-01-17T07:42:11.604Z,0.85
2023-01-17T07:44:41.395Z,0.73
2023-01-17T07:47:09.221Z,0.90
2023-01-17T07:49:37.032Z,0.45
2023-01-17T07:52:04.979Z,0.80
2023-01-17T07:54:34.082Z,0.77
2023-01-17T07:57:02.048Z,0.57
2023-01-17T07:59:30.259Z,0.60
2023-01-17T08:01:58.130Z,0.82
2023-01-17T08:04:27.241Z,0.93
2023-01-17T08:06:55.183Z,0.50
2023-01-17T08:09:23.126Z,0.70
2023-01-17T08:11:52.584Z,0.60
2023-01-17T08:14:20.421Z,0.70
2023-01-17T08:16:48.220Z,0.80
2023-01-17T08:19:16.816Z,0.85
2023-01-17T08:21:44.593Z,1.10
2023-01-17T08:24:14.086Z,1.42
2023-01-17T08:26:42.064Z,0.98
2023-01-17T08:29:11.247Z,1.40
2023-01-17T08:31:39.105Z,1.30
2023-01-17T08:34:06.961Z,1.30
2023-01-17T08:36:34.814Z,1.20
2023-01-17T08:39:02.579Z,1.60
2023-01-17T08:41:32.171Z,2.00
2023-01-17T08:43:59.938Z,1.60
2023-01-17T08:46:32.148Z,1.55
2023-01-17T08:49:02.745Z,1.90
2023-01-17T08:51:32.451Z,1.65
2023-01-17T08:54:00.466Z,1.40
2023-01-17T08:56:28.401Z,1.80
2023-01-17T08:58:56.329Z,1.50
2023-01-17T09:01:24.597Z,1.88
2023-01-17T09:03:53.925Z,1.98
2023-01-17T09:06:22.148Z,1.67
2023-01-17T09:08:52.523Z,1.98
2023-01-17T09:11:20.300Z,1.42
2023-01-17T09:13:48.101Z,1.60
2023-01-17T09:16:15.928Z,1.92
2023-01-17T09:18:43.683Z,1.80
2023-01-17T09:21:14.188Z,1.95
2023-01-17T09:23:42.938Z,1.85
2023-01-17T09:26:19.406Z,1.58
2023-01-17T09:28:47.191Z,1.80
2023-01-17T09:31:17.295Z,1.80
2023-01-17T09:33:45.843Z,1.77
2023-01-17T09:36:15.430Z,2.13
2023-01-17T09:38:43.452Z,1.85
2023-01-17T09:41:28.065Z,1.48
2023-01-17T09:44:01.563Z,1.27
2023-01-17T09:46:33.236Z,1.33
2023-01-17T09:49:08.571Z,1.17
2023-01-17T09:51:38.403Z,1.05
2023-01-17T09:54:06.739Z,1.50
2023-01-17T09:56:41.281Z,1.70
2023-01-17T09:59:35.750Z,1.73
2023-01-17T10:02:17.998Z,1.80
2023-01-17T10:07:33.615Z,2.05
2023-01-17T10:10:17.207Z,1.85
2023-01-17T10:12:52.176Z,1.77
2023-01-17T10:15:39.016Z,2.10
2023-01-17T10:18:31.555Z,2.25
2023-01-17T10:21:05.612Z,2.75
2023-01-17T10:23:52.401Z,2.08
2023-01-17T10:26:27.203Z,1.90
2023-01-17T10:29:01.401Z,2.50
2023-01-17T10:31:32.218Z,2.30
2023-01-17T10:34:08.104Z,2.50
2023-01-17T10:36:39.443Z,2.20
2023-01-17T10:39:17.183Z,2.08
2023-01-17T10:41:48.710Z,2.33
2023-01-17T10:44:22.019Z,2.75
2023-01-17T10:46:56.598Z,2.22
2023-01-17T10:49:27.921Z,2.10
2023-01-17T10:52:13.409Z,2.08
2023-01-17T10:54:56.600Z,2.20
2023-01-17T10:57:25.906Z,1.88
2023-01-17T10:59:58.889Z,2.20
2023-01-17T11:02:31.292Z,2.20
2023-01-17T11:05:05.746Z,2.22
2023-01-17T11:07:33.630Z,1.85
2023-01-17T11:10:02.739Z,2.13
2023-01-17T11:12:33.049Z,2.28
2023-01-17T11:15:22.752Z,2.10
2023-01-17T11:17:53.218Z,2.25
2023-01-17T11:20:29.222Z,2.03
2023-01-17T11:23:07.904Z,2.05
2023-01-17T11:25:37.375Z,2.05
2023-01-17T11:28:08.908Z,2.05
2023-01-17T11:30:36.686Z,2.10
2023-01-17T11:33:08.820Z,1.98
2023-01-17T11:35:38.315Z,2.20
2023-01-17T11:38:12.759Z,3.08
2023-01-17T11:40:44.325Z,1.80
2023-01-17T11:43:26.315Z,1.50
2023-01-17T11:46:15.524Z,2.10
2023-01-17T11:48:47.891Z,2.00
2023-01-17T11:51:21.633Z,1.70
2023-01-17T11:53:49.914Z,2.13
2023-01-17T11:56:30.681Z,1.60
2023-01-17T11:59:27.900Z,1.58
2023-01-17T12:02:24.479Z,1.60
2023-01-17T12:05:02.420Z,1.80
2023-01-17T12:07:39.091Z,1.77
2023-01-17T12:10:15.635Z,1.60
2023-01-17T12:13:29.104Z,1.60
2023-01-17T12:16:32.817Z,2.10
2023-01-17T12:19:13.207Z,2.05
2023-01-17T12:21:49.950Z,1.80
2023-01-17T12:24:35.286Z,1.75
2023-01-17T12:27:13.351Z,5.78
2023-01-17T12:29:51.207Z,2.70
2023-01-17T12:32:38.811Z,1.80
2023-01-17T12:35:14.308Z,2.00
2023-01-17T12:37:45.245Z,1.75
2023-01-17T12:40:20.247Z,2.00
2023-01-17T12:42:54.655Z,1.80
2023-01-17T12:45:32.110Z,1.88
2023-01-17T12:48:06.117Z,2.15
2023-01-17T12:50:39.775Z,2.13
2023-01-17T12:53:20.632Z,1.75
2023-01-17T12:55:56.577Z,1.88
2023-01-17T12:58:28.906Z,2.10
2023-01-17T13:01:05.592Z,2.13
2023-01-17T13:03:47.768Z,2.47
2023-01-17T13:06:25.988Z,2.10
2023-01-17T13:08:59.328Z,1.63
2023-01-17T13:11:33.519Z,1.98
2023-01-17T13:14:03.356Z,1.50
2023-01-17T13:16:40.628Z,2.58
2023-01-17T13:19:19.834Z,1.85
2023-01-17T13:21:48.930Z,1.95
2023-01-17T13:24:25.855Z,1.50
2023-01-17T13:27:30.212Z,1.73
2023-01-17T13:30:16.429Z,1.88
2023-01-17T13:33:01.958Z,1.30
2023-01-17T13:35:41.945Z,1.73
2023-01-17T13:38:35.529Z,1.27
2023-01-17T13:41:14.381Z,1.67
2023-01-17T13:44:04.962Z,1.20
2023-01-17T13:46:33.431Z,1.23
2023-01-17T13:49:31.501Z,1.40
2023-01-17T13:52:09.878Z,1.27
2023-01-17T13:54:45.807Z,1.35
2023-01-17T13:57:36.175Z,1.15
2023-01-17T14:00:50.321Z,1.23
2023-01-17T14:03:58.405Z,1.52
2023-01-17T14:06:34.421Z,1.30
2023-01-17T14:09:06.128Z,1.75
2023-01-17T14:11:36.188Z,1.30
2023-01-17T14:14:37.461Z,1.35
2023-01-17T14:17:28.184Z,1.60
2023-01-17T14:20:00.289Z,1.30
2023-01-17T14:25:05.367Z,1.75
2023-01-17T14:27:35.245Z,2.05
2023-01-17T14:30:04.831Z,2.20
2023-01-17T14:32:36.004Z,2.47
2023-01-17T14:35:05.415Z,2.03
2023-01-17T14:37:46.717Z,9.77
2023-01-17T14:40:19.805Z,2.13
2023-01-17T14:42:49.035Z,2.10
2023-01-17T14:45:25.097Z,2.05
2023-01-17T14:47:53.917Z,2.63
2023-01-17T14:50:24.729Z,2.40
2023-01-17T14:53:17.927Z,2.35
2023-01-17T14:55:58.540Z,2.17
2023-01-17T14:58:28.487Z,2.20
2023-01-17T15:00:59.981Z,2.35
2023-01-17T15:03:28.804Z,1.67
2023-01-17T15:05:58.908Z,2.47
2023-01-17T15:08:35.991Z,1.92
2023-01-17T15:11:08.519Z,2.00
2023-01-17T15:13:44.862Z,2.25
2023-01-17T15:16:21.161Z,2.10
2023-01-17T15:18:49.818Z,2.28
2023-01-17T15:21:20.395Z,2.17
2023-01-17T15:23:52.395Z,2.28
2023-01-17T15:28:51.535Z,2.45
2023-01-17T15:31:23.964Z,2.50
2023-01-17T15:33:56.675Z,3.10
2023-01-17T15:36:28.884Z,3.67
2023-01-17T15:39:00.225Z,2.65
2023-01-17T15:41:32.795Z,2.63
2023-01-17T15:44:01.344Z,2.40
2023-01-17T15:46:32.966Z,3.05
2023-01-17T15:49:17.983Z,2.70
2023-01-17T15:51:50.264Z,2.90
2023-01-17T15:54:35.494Z,2.85
2023-01-17T15:57:21.149Z,2.88
2023-01-17T15:59:53.706Z,3.45
2023-01-17T16:02:34.119Z,3.22
2023-01-17T16:05:05.668Z,3.05
2023-01-17T16:07:35.643Z,3.10
2023-01-17T16:10:07.879Z,3.20
2023-01-17T16:12:37.050Z,3.70
2023-01-17T16:15:12.945Z,3.20
2023-01-17T16:17:42.781Z,3.72
2023-01-17T16:20:15.809Z,4.85
2023-01-17T16:22:44.355Z,4.13
2023-01-17T16:25:16.604Z,4.22
2023-01-17T16:27:45.899Z,4.55
2023-01-17T16:30:16.254Z,4.60
2023-01-17T16:32:48.539Z,4.47
2023-01-17T16:35:20.714Z,4.65
2023-01-17T16:37:50.645Z,4.75
2023-01-17T16:40:18.885Z,4.35
2023-01-17T16:42:48.363Z,4.10
2023-01-17T16:45:17.361Z,4.15
2023-01-17T16:47:47.476Z,5.07
2023-01-17T16:50:18.038Z,5.45
2023-01-17T16:52:45.863Z,5.70
2023-01-17T16:55:16.165Z,6.03
2023-01-17T16:57:44.236Z,6.38
2023-01-17T17:00:14.606Z,7.07
2023-01-17T17:02:42.550Z,7.55
2023-01-17T17:05:11.677Z,6.70
2023-01-17T17:07:44.148Z,7.43
2023-01-17T17:10:14.073Z,8.60
2023-01-17T17:12:42.144Z,8.68
2023-01-17T17:15:10.674Z,8.45
2023-01-17T17:17:41.043Z,8.88
2023-01-17T17:20:11.492Z,9.73
2023-01-17T17:22:39.457Z,10.50
2023-01-17T17:25:08.169Z,10.35
2023-01-17T17:27:36.416Z,10.07
2023-01-17T17:30:05.412Z,9.43
2023-01-17T17:32:33.367Z,10.13
2023-01-17T17:35:02.607Z,11.10
2023-01-17T17:37:30.551Z,11.57
2023-01-17T17:39:58.420Z,12.68
2023-01-17T17:42:26.652Z,13.15
2023-01-17T17:44:54.373Z,12.85
2023-01-17T17:47:23.953Z,12.80
2023-01-17T17:49:51.738Z,13.57
2023-01-17T17:52:20.974Z,12.93
2023-01-17T17:54:49.145Z,12.57
2023-01-17T17:57:17.372Z,13.98
2023-01-17T17:59:45.130Z,13.27
2023-01-17T18:02:13.070Z,12.85
2023-01-17T18:04:40.951Z,20.35
2023-01-17T18:07:08.705Z,13.48
2023-01-17T18:09:39.282Z,11.65
2023-01-17T18:12:07.445Z,11.85
2023-01-17T18:14:35.478Z,11.18
2023-01-17T18:17:03.253Z,11.30
2023-01-17T18:19:31.071Z,10.65
2023-01-17T18:21:58.939Z,11.32
2023-01-17T18:24:28.041Z,12.15
2023-01-17T18:26:58.460Z,10.98
2023-01-17T18:29:27.522Z,12.40
2023-01-17T18:31:55.881Z,12.32
2023-01-17T18:34:26.982Z,12.43
2023-01-17T18:36:55.065Z,11.30
2023-01-17T18:39:25.210Z,11.38
2023-01-17T18:41:53.892Z,11.40
2023-01-17T18:44:23.396Z,12.90
2023-01-17T18:46:51.281Z,12.80
2023-01-17T18:49:20.159Z,11.40
2023-01-17T18:51:50.729Z,12.45
2023-01-17T18:54:19.558Z,11.50
2023-01-17T18:56:47.650Z,11.48
2023-01-17T18:59:18.263Z,12.00
2023-01-17T19:01:48.473Z,11.73
2023-01-17T19:04:17.924Z,11.52
2023-01-17T19:06:47.835Z,11.85
2023-01-17T19:09:16.669Z,11.00
2023-01-17T19:11:45.446Z,11.15
2023-01-17T19:14:14.490Z,12.20
2023-01-17T19:16:43.370Z,12.00
2023-01-17T19:19:15.757Z,11.50
2023-01-17T19:21:43.769Z,10.52
2023-01-17T19:24:12.911Z,10.80
2023-01-17T19:26:40.746Z,11.15
2023-01-17T19:29:08.574Z,10.25
2023-01-17T19:31:42.510Z,9.52
2023-01-17T19:34:13.760Z,9.80
2023-01-17T19:36:41.948Z,10.70
2023-01-17T19:39:10.650Z,10.27
2023-01-17T19:41:42.238Z,10.57
2023-01-17T19:44:11.870Z,10.77
2023-01-17T19:46:40.028Z,10.80
2023-01-17T19:49:09.993Z,10.48
2023-01-17T19:51:39.653Z,10.18
2023-01-17T19:54:08.380Z,9.98
2023-01-17T19:56:36.755Z,8.90
2023-01-17T19:59:04.715Z,9.95
2023-01-17T20:01:34.336Z,11.90
2023-01-17T20:04:03.576Z,12.65
2023-01-17T20:06:35.365Z,14.13
2023-01-17T20:09:06.076Z,13.90
2023-01-17T20:11:34.192Z,14.68
2023-01-17T20:14:02.666Z,15.13
2023-01-17T20:16:32.970Z,15.40
2023-01-17T20:19:02.558Z,15.30
2023-01-17T20:21:31.945Z,14.63
2023-01-17T20:24:03.290Z,15.43
2023-01-17T20:26:35.684Z,14.77
2023-01-17T20:29:06.868Z,16.13
2023-01-17T20:31:38.197Z,18.87
2023-01-17T20:34:06.819Z,13.82
2023-01-17T20:36:34.690Z,14.82
2023-01-17T20:39:05.055Z,16.38
2023-01-17T20:41:35.450Z,14.57
2023-01-17T20:44:05.974Z,14.43
2023-01-17T20:46:36.876Z,15.35
2023-01-17T20:49:07.910Z,14.02
2023-01-17T20:51:38.352Z,14.95
2023-01-17T20:54:06.971Z,15.65
2023-01-17T20:56:37.598Z,16.52
2023-01-17T20:59:07.621Z,16.10
2023-01-17T21:01:36.030Z,16.02
2023-01-17T21:04:04.507Z,17.90
2023-01-17T21:06:32.493Z,17.08
2023-01-17T21:09:00.868Z,17.58
2023-01-17T21:11:28.754Z,17.55
2023-01-17T21:13:58.398Z,16.52
2023-01-17T21:16:27.941Z,16.60
2023-01-17T21:18:55.937Z,17.35
2023-01-17T21:21:26.136Z,18.05
2023-01-17T21:23:55.477Z,17.13
2023-01-17T21:26:25.656Z,18.70
2023-01-17T21:28:54.137Z,18.45
2023-01-17T21:31:25.881Z,18.85
2023-01-17T21:33:55.609Z,17.05
2023-01-17T21:36:26.059Z,18.85
2023-01-17T21:38:56.943Z,20.10
2023-01-17T21:41:26.940Z,18.27
2023-01-17T21:43:55.945Z,18.70
2023-01-17T21:46:25.611Z,18.77
2023-01-17T21:48:53.923Z,18.52
2023-01-17T21:51:21.823Z,17.25
2023-01-17T21:53:49.898Z,17.25
2023-01-17T21:56:34.864Z,17.60
2023-01-17T21:59:02.643Z,18.10
2023-01-17T22:01:34.267Z,19.00
2023-01-17T22:04:04.120Z,18.33
2023-01-17T22:06:34.267Z,19.35
2023-01-17T22:09:02.263Z,19.73
2023-01-17T22:11:31.056Z,18.15
2023-01-17T22:13:59.444Z,17.73
2023-01-17T22:16:27.635Z,17.98
2023-01-17T22:18:57.079Z,20.85
2023-01-17T22:21:28.184Z,19.98
2023-01-17T22:23:58.307Z,22.23
2023-01-17T22:26:27.854Z,21.42
2023-01-17T22:28:56.496Z,20.42
2023-01-17T22:31:26.933Z,19.92
2023-01-17T22:33:58.559Z,20.63
2023-01-17T22:36:26.916Z,21.00
2023-01-17T22:38:55.542Z,20.65
2023-01-17T22:41:25.206Z,22.98
2023-01-17T22:43:56.438Z,21.23
2023-01-17T22:46:27.581Z,23.80
2023-01-17T22:48:57.690Z,24.23
2023-01-17T22:51:27.087Z,24.77
2023-01-17T22:53:56.985Z,24.73
2023-01-17T22:56:26.490Z,25.67
2023-01-17T22:58:54.645Z,26.63
2023-01-17T23:01:24.409Z,28.40
2023-01-17T23:03:54.170Z,28.63
2023-01-17T23:06:25.982Z,26.90
2023-01-17T23:08:55.822Z,28.10
2023-01-17T23:11:42.597Z,26.00
2023-01-17T23:14:13.851Z,23.55
2023-01-17T23:17:01.424Z,21.47
2023-01-17T23:19:31.450Z,19.85
2023-01-17T23:22:19.296Z,19.33
2023-01-17T23:24:50.220Z,18.73
2023-01-17T23:27:37.259Z,20.05
2023-01-17T23:30:07.233Z,17.90
2023-01-17T23:32:35.128Z,20.52
2023-01-17T23:35:02.940Z,20.90
2023-01-17T23:37:46.256Z,21.70
2023-01-17T23:40:14.387Z,21.67
2023-01-17T23:42:59.757Z,21.92
2023-01-17T23:45:28.061Z,19.40
2023-01-17T23:47:56.112Z,19.55
2023-01-17T23:50:24.227Z,19.52
2023-01-17T23:52:53.391Z,21.30
2023-01-17T23:55:21.106Z,22.25
2023-01-17T23:57:50.145Z,22.25
